Time;durP1;ratioP1;P1;durP2;ratioP2;P2;SDS_P1;SDS_P2;PMS_P1;PMS_P2;Temp;Humidity;BMP_temperature;BMP_pressure;BME280_temperature;BME280_humidity;BME280_pressure;Samples;Min_cycle;Max_cycle;Signal;HPM_P1;HPM_P2
2023/09/11 00:01:49;;;;;;;5.47;2.47;;;;;;;14.70;100.00;95196.31;4951480;28;20078;-92
2023/09/11 00:04:14;;;;;;;5.13;2.50;;;;;;;14.51;100.00;95202.16;4969764;28;20532;-92
2023/09/11 00:06:39;;;;;;;3.85;2.33;;;;;;;14.61;100.00;95194.84;4935992;28;20027;-92
2023/09/11 00:09:05;;;;;;;4.85;2.55;;;;;;;14.37;100.00;95202.25;4953345;28;20085;-91
2023/09/11 00:11:30;;;;;;;4.60;2.50;;;;;;;14.44;100.00;95200.53;4953154;28;20114;-92
2023/09/11 00:13:56;;;;;;;6.75;2.38;;;;;;;14.36;100.00;95211.06;4963149;28;20416;-91
2023/09/11 00:16:22;;;;;;;5.35;2.50;;;;;;;14.42;100.00;95211.13;4937370;28;20038;-91
2023/09/11 00:18:47;;;;;;;3.60;2.30;;;;;;;14.18;100.00;95219.31;4951018;28;20031;-91
2023/09/11 00:21:13;;;;;;;3.50;2.22;;;;;;;14.26;100.00;95208.75;4952900;28;20031;-91
2023/09/11 00:23:38;;;;;;;3.97;2.40;;;;;;;14.32;100.00;95215.03;4950943;28;20346;-92
2023/09/11 00:26:03;;;;;;;4.25;2.33;;;;;;;14.24;100.00;95214.16;4937064;28;20054;-91
2023/09/11 00:28:29;;;;;;;4.80;2.28;;;;;;;14.41;100.00;95196.50;4950948;28;20113;-92
2023/09/11 00:30:59;;;;;;;3.83;2.25;;;;;;;14.36;100.00;95193.63;4952727;28;20023;-92
2023/09/11 00:35:59;;;;;;;2.85;2.10;;;;;;;13.91;100.00;95209.59;5553581;23;20234;-92
2023/09/11 00:38:25;;;;;;;6.78;2.72;;;;;;;13.83;100.00;95215.75;4987344;28;20041;-92
2023/09/11 00:40:50;;;;;;;4.03;2.13;;;;;;;13.67;100.00;95232.38;4972531;28;20416;-90
2023/09/11 00:43:15;;;;;;;5.60;2.40;;;;;;;13.60;100.00;95233.28;4973484;28;20030;-91
2023/09/11 00:45:41;;;;;;;3.60;2.60;;;;;;;13.45;100.00;95242.91;4977187;28;20026;-89
2023/09/11 00:48:07;;;;;;;4.03;2.55;;;;;;;13.40;100.00;95253.03;4965441;28;20093;-89
2023/09/11 00:50:32;;;;;;;2.60;2.28;;;;;;;13.41;100.00;95244.25;4990925;28;20492;-90
2023/09/11 00:52:58;;;;;;;5.80;2.53;;;;;;;13.36;100.00;95238.78;4992165;28;20068;-91
2023/09/11 00:55:24;;;;;;;5.72;3.00;;;;;;;13.41;100.00;95245.06;4973318;28;20389;-92
2023/09/11 00:57:50;;;;;;;6.22;2.78;;;;;;;13.17;100.00;95245.34;4975217;28;20091;-89
2023/09/11 01:00:16;;;;;;;5.90;2.60;;;;;;;13.19;100.00;95251.19;5709148;23;20133;-91
2023/09/11 01:02:41;;;;;;;4.55;2.55;;;;;;;13.00;100.00;95252.47;4971675;28;20057;-91
2023/09/11 01:05:08;;;;;;;8.00;3.05;;;;;;;13.05;100.00;95241.53;4955865;29;20122;-92
2023/09/11 01:07:34;;;;;;;6.88;2.75;;;;;;;12.87;100.00;95249.69;4936735;29;20023;-88
2023/09/11 01:10:01;;;;;;;4.45;2.63;;;;;;;12.79;100.00;95252.34;4955023;29;20034;-87
2023/09/11 01:15:04;;;;;;;3.95;3.53;;;;;;;12.86;100.00;95263.66;5743955;23;20058;-88
2023/09/11 01:17:57;;;;;;;5.75;2.67;;;;;;;12.98;100.00;95254.44;4954382;28;20114;-92
2023/09/11 01:33:32;;;;;;;4.35;2.83;;;;;;;12.53;100.00;95252.75;5998176;23;20285;-88
2023/09/11 01:35:57;;;;;;;7.72;3.00;;;;;;;12.56;100.00;95251.56;4942485;28;20034;-89
2023/09/11 01:38:23;;;;;;;5.30;2.55;;;;;;;12.55;100.00;95250.75;4988101;28;20368;-85
2023/09/11 01:40:52;;;;;;;6.38;2.80;;;;;;;12.52;100.00;95245.13;4968017;28;20027;-85
2023/09/11 01:43:18;;;;;;;5.25;2.53;;;;;;;12.43;100.00;95249.56;4972402;28;20018;-87
2023/09/11 01:45:44;;;;;;;6.57;3.15;;;;;;;12.52;100.00;95248.50;4971144;28;20066;-87
2023/09/11 01:48:11;;;;;;;4.30;2.90;;;;;;;12.33;100.00;95256.00;4947649;28;20436;-85
2023/09/11 01:53:12;;;;;;;3.90;2.88;;;;;;;12.38;100.00;95264.06;6070294;23;20013;-85
2023/09/11 01:55:38;;;;;;;7.35;3.08;;;;;;;12.17;100.00;95256.13;5112009;23;20045;-83
2023/09/11 04:39:32;;;;;;;3.35;2.50;;;;;;;11.68;100.00;95243.41;6044516;23;20063;-85
2023/09/11 04:44:33;;;;;;;4.72;2.58;;;;;;;12.13;100.00;95233.09;5995247;23;20056;-87
2023/09/11 04:46:58;;;;;;;3.97;1.98;;;;;;;12.48;100.00;95220.47;4974992;28;20039;-91
2023/09/11 04:49:24;;;;;;;10.75;2.58;;;;;;;13.25;100.00;95202.81;4989476;28;20051;-93
2023/09/11 04:51:49;;;;;;;4.30;2.45;;;;;;;15.98;100.00;95120.78;4988630;28;20033;-86
2023/09/11 04:54:14;;;;;;;6.10;2.53;;;;;;;17.13;100.00;95088.88;4989729;28;20499;-89
2023/09/11 04:56:40;;;;;;;5.43;2.45;;;;;;;17.95;100.00;95074.94;4987961;28;20035;-88
2023/09/11 04:59:05;;;;;;;8.73;2.65;;;;;;;18.21;100.00;95072.91;4972382;28;20601;-88
2023/09/11 05:01:31;;;;;;;3.65;1.75;;;;;;;18.46;100.00;95077.34;4988288;28;20041;-88
2023/09/11 05:03:56;;;;;;;4.15;2.08;;;;;;;18.80;100.00;95074.19;4989360;28;20121;-88
2023/09/11 05:06:22;;;;;;;5.18;1.80;;;;;;;19.22;100.00;95065.44;4992357;28;20050;-88
2023/09/11 05:08:47;;;;;;;4.28;1.80;;;;;;;19.41;100.00;95064.41;4992357;28;20093;-88
2023/09/11 05:11:12;;;;;;;4.80;1.95;;;;;;;19.78;100.00;95064.28;4993459;28;20097;-87
2023/09/11 05:13:38;;;;;;;3.80;1.55;;;;;;;20.00;100.00;95058.28;4974232;28;20018;-89
2023/09/11 05:16:04;;;;;;;3.55;1.60;;;;;;;20.91;95.36;95073.56;4976201;28;20125;-89
2023/09/11 05:18:29;;;;;;;2.85;1.58;;;;;;;21.03;92.76;95076.97;4991907;28;20057;-89
2023/09/11 05:20:54;;;;;;;5.43;2.10;;;;;;;21.15;91.92;95069.09;4992898;28;20490;-88
2023/09/11 05:23:20;;;;;;;4.32;1.98;;;;;;;21.21;92.85;95073.44;4991612;28;20030;-84
2023/09/11 05:25:45;;;;;;;5.85;2.35;;;;;;;21.57;89.04;95064.38;4992722;28;20113;-88
2023/09/11 05:28:11;;;;;;;6.68;2.28;;;;;;;21.59;88.75;95074.66;4992472;28;20508;-87
2023/09/11 05:30:37;;;;;;;3.55;1.95;;;;;;;21.63;89.46;95070.53;4992300;28;20061;-89
2023/09/11 05:33:02;;;;;;;4.55;2.20;;;;;;;21.75;87.96;95073.91;4992834;28;20544;-89
2023/09/11 05:35:28;;;;;;;7.60;2.55;;;;;;;22.33;83.10;95066.47;4991811;28;20517;-88
2023/09/11 05:37:53;;;;;;;9.80;4.88;;;;;;;22.55;82.29;95071.81;4993580;28;20034;-91
2023/09/11 05:40:19;;;;;;;19.60;17.13;;;;;;;22.48;80.35;95068.53;4991768;28;20574;-89
2023/09/11 05:42:44;;;;;;;15.85;10.45;;;;;;;22.94;78.79;95070.81;4992709;28;20023;-89
2023/09/11 05:45:09;;;;;;;7.28;6.45;;;;;;;23.04;79.48;95076.25;4991748;28;20046;-89
2023/09/11 05:47:36;;;;;;;3.70;2.90;;;;;;;22.71;83.31;95075.50;4991370;28;20062;-87
2023/09/11 05:50:02;;;;;;;5.60;2.50;;;;;;;22.86;77.55;95067.81;4992216;28;20034;-91
2023/09/11 05:52:28;;;;;;;4.07;2.50;;;;;;;22.89;80.00;95062.03;4990591;28;20104;-88
2023/09/11 05:54:53;;;;;;;4.35;2.28;;;;;;;23.03;80.06;95068.56;4973442;28;20042;-86
2023/09/11 05:57:18;;;;;;;5.63;2.50;;;;;;;22.64;84.73;95066.91;4990236;28;20027;-87
2023/09/11 05:59:45;;;;;;;4.80;2.45;;;;;;;22.48;86.60;95064.06;4991043;28;20023;-88
2023/09/11 06:02:11;;;;;;;8.27;2.35;;;;;;;22.17;87.80;95058.56;4990644;28;20061;-87
2023/09/11 06:04:36;;;;;;;6.40;2.47;;;;;;;22.31;85.97;95063.28;4990500;28;20022;-89
2023/09/11 06:07:03;;;;;;;7.10;2.55;;;;;;;22.32;86.11;95064.88;4990891;28;20472;-86
2023/09/11 06:09:29;;;;;;;5.63;1.90;;;;;;;22.23;87.35;95063.69;4990014;28;20022;-87
2023/09/11 06:11:54;;;;;;;4.88;2.15;;;;;;;22.10;88.97;95066.63;4990894;28;20019;-89
2023/09/11 06:14:19;;;;;;;5.20;2.05;;;;;;;24.82;73.65;95076.19;4989659;28;20030;-89
2023/09/11 06:16:45;;;;;;;3.25;1.83;;;;;;;27.60;59.63;95075.41;4990471;28;20034;-88
2023/09/11 06:19:11;;;;;;;2.55;1.75;;;;;;;28.26;54.62;95075.00;4972590;28;20034;-90
2023/09/11 06:21:36;;;;;;;2.42;1.73;;;;;;;28.28;52.86;95083.56;4991385;28;20031;-90
2023/09/11 06:24:04;;;;;;;15.60;2.30;;;;;;;29.11;49.23;95080.69;4990325;28;20473;-91
2023/09/11 06:26:29;;;;;;;4.05;1.50;;;;;;;29.98;46.84;95079.41;4974044;28;20026;-88
2023/09/11 06:28:55;;;;;;;3.67;1.80;;;;;;;30.30;46.24;95075.97;4990727;28;20053;-91
2023/09/11 06:31:21;;;;;;;3.47;1.40;;;;;;;30.14;43.71;95079.97;4972776;28;20782;-91
2023/09/11 06:33:46;;;;;;;4.87;1.53;;;;;;;30.12;45.39;95082.13;4991512;28;20458;-90
2023/09/11 06:36:13;;;;;;;2.13;1.60;;;;;;;30.33;44.46;95081.53;4972166;28;20042;-90
2023/09/11 06:38:38;;;;;;;4.15;1.45;;;;;;;30.59;43.22;95084.63;4991283;28;20019;-90
2023/09/11 06:41:04;;;;;;;3.30;1.37;;;;;;;30.82;42.03;95082.91;4989687;28;20022;-88
2023/09/11 06:43:29;;;;;;;1.40;0.97;;;;;;;31.69;40.96;95088.25;4990576;28;20381;-84
2023/09/11 06:45:54;;;;;;;2.13;1.40;;;;;;;30.28;43.00;95089.63;4989996;28;20034;-88
2023/09/11 06:48:21;;;;;;;2.93;1.27;;;;;;;31.53;40.92;95087.75;4989060;28;20027;-87
2023/09/11 06:50:47;;;;;;;3.17;1.20;;;;;;;31.86;39.75;95091.91;4973242;28;20022;-90
2023/09/11 06:53:13;;;;;;;3.23;1.30;;;;;;;31.71;39.43;95086.88;4988568;28;20037;-87
2023/09/11 06:55:48;;;;;;;2.55;1.30;;;;;;;31.76;39.94;95086.75;4990277;28;20018;-89
2023/09/11 06:58:14;;;;;;;5.32;1.30;;;;;;;32.33;38.24;95087.91;4988987;28;20089;-90
2023/09/11 07:00:40;;;;;;;2.40;1.03;;;;;;;32.58;38.72;95094.59;4990135;28;20353;-87
2023/09/11 07:03:05;;;;;;;2.17;1.20;;;;;;;32.34;38.11;95096.75;4971759;28;20026;-89
2023/09/11 07:05:31;;;;;;;1.53;1.10;;;;;;;33.02;37.81;95090.28;4972271;28;20086;-89
2023/09/11 07:07:56;;;;;;;3.60;1.50;;;;;;;32.72;39.05;95098.00;4972284;28;20110;-88
2023/09/11 07:10:22;;;;;;;1.87;1.30;;;;;;;32.97;38.10;95093.91;4988472;28;20492;-88
2023/09/11 07:12:49;;;;;;;4.13;1.77;;;;;;;33.08;37.37;95078.28;4989834;28;20057;-88
2023/09/11 07:15:17;;;;;;;3.60;1.35;;;;;;;33.26;37.57;95083.50;4970803;28;20274;-88
2023/09/11 07:17:44;;;;;;;2.13;1.42;;;;;;;33.83;36.11;95084.31;4973235;28;20068;-89
2023/09/11 07:20:10;;;;;;;4.32;1.23;;;;;;;34.80;34.85;95077.53;4972022;28;20030;-89
2023/09/11 07:22:36;;;;;;;4.60;1.23;;;;;;;33.62;36.16;95077.16;4989277;28;20041;-88
2023/09/11 07:25:02;;;;;;;6.73;1.30;;;;;;;35.12;35.24;95075.41;4989667;28;20157;-87
2023/09/11 07:27:33;;;;;;;6.80;1.67;;;;;;;36.11;32.74;95073.97;4988037;28;20030;-88
2023/09/11 07:29:59;;;;;;;4.53;2.00;;;;;;;34.20;35.49;95068.69;4972289;28;20034;-85
2023/09/11 07:32:25;;;;;;;3.00;1.33;;;;;;;33.61;36.78;95076.34;4987873;28;20023;-86
2023/09/11 07:34:51;;;;;;;3.88;1.65;;;;;;;30.89;40.12;95071.81;4971772;28;20038;-87
2023/09/11 07:37:16;;;;;;;4.30;1.70;;;;;;;27.62;51.83;95064.47;4988226;28;20042;-89
2023/09/11 07:39:41;;;;;;;5.03;1.95;;;;;;;26.58;55.80;95079.38;4989353;28;20113;-86
2023/09/11 07:42:07;;;;;;;2.63;1.98;;;;;;;26.54;59.16;95073.00;4988881;28;20519;-88
2023/09/11 07:44:32;;;;;;;7.28;2.33;;;;;;;26.00;58.42;95074.53;4987676;28;20117;-86
2023/09/11 07:46:58;;;;;;;5.38;2.20;;;;;;;25.27;62.72;95070.31;4971857;28;20046;-83
2023/09/11 07:49:23;;;;;;;3.33;1.70;;;;;;;25.29;62.53;95073.50;4987869;28;20360;-85
2023/09/11 07:51:49;;;;;;;5.75;2.05;;;;;;;25.22;63.91;95073.75;4988817;28;20109;-84
2023/09/11 07:54:14;;;;;;;5.40;2.28;;;;;;;25.48;62.30;95062.16;4987416;28;20392;-89
2023/09/11 07:56:39;;;;;;;4.13;2.38;;;;;;;25.81;63.48;95065.47;4988769;28;20098;-86
2023/09/11 07:59:05;;;;;;;6.72;2.47;;;;;;;26.22;62.89;95061.84;4988057;28;20136;-88
2023/09/11 08:01:30;;;;;;;3.92;2.30;;;;;;;25.92;61.96;95064.41;4987773;28;20030;-86
2023/09/11 08:03:56;;;;;;;9.15;2.53;;;;;;;26.18;60.52;95066.88;4988578;28;20022;-86
2023/09/11 08:06:23;;;;;;;7.43;2.60;;;;;;;25.66;60.54;95051.09;4987407;28;20420;-87
2023/09/11 08:08:49;;;;;;;3.73;2.50;;;;;;;25.82;62.32;95062.53;4971795;28;20046;-88
2023/09/11 08:11:16;;;;;;;5.75;2.70;;;;;;;25.66;62.54;95053.75;4987166;28;20025;-86
2023/09/11 08:13:43;;;;;;;6.10;2.20;;;;;;;26.06;63.16;95061.00;4971241;28;20033;-88
2023/09/11 08:16:09;;;;;;;7.53;2.50;;;;;;;26.10;60.73;95048.00;4987974;28;20032;-89
2023/09/11 08:18:35;;;;;;;7.22;2.92;;;;;;;26.29;59.47;95053.59;4988147;28;20507;-86
2023/09/11 08:21:00;;;;;;;6.28;2.85;;;;;;;25.68;59.10;95049.00;4970817;28;20082;-88
2023/09/11 08:23:26;;;;;;;4.82;2.78;;;;;;;25.98;57.02;95045.56;4987096;28;20030;-88
2023/09/11 08:26:03;;;;;;;4.82;2.42;;;;;;;26.18;57.67;95045.63;4971695;28;20033;-89
2023/09/11 08:28:29;;;;;;;5.00;2.67;;;;;;;25.67;56.53;95038.63;4972063;28;20496;-88
2023/09/11 08:30:54;;;;;;;5.28;2.10;;;;;;;26.30;56.87;95041.91;4971273;28;20118;-85
2023/09/11 08:33:22;;;;;;;5.28;2.38;;;;;;;26.23;55.15;95038.72;4987368;28;20037;-86
2023/09/11 08:35:48;;;;;;;8.07;2.67;;;;;;;26.00;55.74;95037.34;4954580;28;20034;-88
2023/09/11 08:38:15;;;;;;;4.82;2.72;;;;;;;26.14;56.15;95028.59;4970724;28;20427;-87
2023/09/11 08:40:42;;;;;;;5.40;2.90;;;;;;;26.25;54.89;95033.94;4973276;28;20022;-87
2023/09/11 08:43:07;;;;;;;5.53;2.95;;;;;;;26.56;54.90;95030.19;4974992;28;20045;-88
2023/09/11 08:45:33;;;;;;;3.92;2.72;;;;;;;26.52;53.00;95029.91;4973670;28;20432;-88
2023/09/11 08:47:59;;;;;;;7.20;3.15;;;;;;;25.97;52.38;95027.25;4992225;28;20463;-88
2023/09/11 08:50:31;;;;;;;4.65;2.50;;;;;;;26.30;51.91;95023.31;4974014;28;20033;-89
2023/09/11 08:52:58;;;;;;;12.90;2.95;;;;;;;26.43;50.57;95020.09;4975335;28;20045;-86
2023/09/11 08:55:25;;;;;;;9.40;3.35;;;;;;;26.90;49.11;95019.78;4973871;28;20019;-88
2023/09/11 08:57:51;;;;;;;5.85;2.90;;;;;;;26.68;49.56;95015.53;4974211;28;20026;-89
2023/09/11 09:00:17;;;;;;;4.43;2.70;;;;;;;27.19;47.66;95010.09;4991966;28;20054;-87
2023/09/11 09:02:43;;;;;;;6.15;3.22;;;;;;;27.35;48.41;95010.81;4973000;28;20097;-87
2023/09/11 09:05:09;;;;;;;7.35;2.85;;;;;;;27.24;50.17;95010.06;4992227;28;20022;-88
2023/09/11 09:07:35;;;;;;;3.58;2.85;;;;;;;26.41;49.71;95008.94;4972866;28;20023;-90
2023/09/11 09:10:03;;;;;;;5.82;3.10;;;;;;;27.37;48.58;94992.72;4992554;28;20030;-87
2023/09/11 09:12:28;;;;;;;5.10;2.85;;;;;;;27.77;47.00;94998.59;4991509;28;20082;-87
2023/09/11 09:14:54;;;;;;;7.65;2.67;;;;;;;26.08;49.17;94989.81;4974910;28;20030;-83
2023/09/11 09:17:19;;;;;;;4.32;3.13;;;;;;;27.14;47.42;94986.16;4975113;28;20034;-90
2023/09/11 09:19:45;;;;;;;8.02;3.45;;;;;;;27.43;47.98;94989.78;4973758;28;20452;-88
2023/09/11 09:22:12;;;;;;;3.70;3.00;;;;;;;27.89;46.52;94984.16;4975047;28;20033;-88
2023/09/11 09:24:49;;;;;;;3.65;2.75;;;;;;;27.84;46.82;94977.00;4990970;28;20027;-89
2023/09/11 09:27:15;;;;;;;3.88;2.58;;;;;;;27.62;46.38;94969.44;4974675;28;20037;-85
2023/09/11 09:29:40;;;;;;;3.47;2.63;;;;;;;27.63;48.18;94964.91;4990759;28;20026;-90
2023/09/11 09:32:07;;;;;;;5.10;2.60;;;;;;;27.58;46.62;94971.03;4992295;28;20041;-93
2023/09/11 09:34:34;;;;;;;4.95;2.75;;;;;;;27.26;47.47;94970.66;4992228;28;20033;-82
2023/09/11 09:37:00;;;;;;;5.90;3.15;;;;;;;27.08;47.21;94963.31;4974074;28;20037;-88
2023/09/11 09:39:28;;;;;;;9.25;3.63;;;;;;;26.92;48.40;94959.94;4974556;28;20022;-86
2023/09/11 09:41:55;;;;;;;9.43;2.30;;;;;;;26.61;50.09;94969.06;4991726;28;20034;-93
2023/09/11 09:44:44;;;;;;;5.07;2.70;;;;;;;26.92;47.82;94959.13;4974811;28;20157;-91
2023/09/11 09:47:18;;;;;;;10.75;3.00;;;;;;;26.64;47.68;94964.00;4992497;28;20051;-87
2023/09/11 09:49:49;;;;;;;4.45;2.67;;;;;;;26.96;46.76;94960.97;4975893;28;20060;-91
2023/09/11 09:52:15;;;;;;;2.97;2.38;;;;;;;26.33;46.85;94962.44;4991355;28;20286;-92
2023/09/11 09:54:52;;;;;;;5.95;2.78;;;;;;;27.02;47.57;94951.13;4990689;28;20045;-92
2023/09/11 09:57:22;;;;;;;7.90;3.03;;;;;;;26.56;48.11;94959.22;4975226;28;20041;-93
2023/09/11 09:59:53;;;;;;;4.55;2.85;;;;;;;27.16;45.92;94949.47;4973119;28;20022;-91
2023/09/11 10:02:32;;;;;;;5.85;2.60;;;;;;;26.00;50.45;94950.53;4974782;28;20033;-94
2023/09/11 10:05:02;;;;;;;8.02;2.63;;;;;;;28.20;46.11;94951.69;4973373;28;20022;-89
2023/09/11 10:07:38;;;;;;;7.03;3.28;;;;;;;28.43;45.70;94944.00;4973536;28;20026;-88
2023/09/11 10:10:23;;;;;;;7.38;2.95;;;;;;;27.48;45.62;94943.72;4991841;28;20485;-88
2023/09/11 10:13:00;;;;;;;4.72;2.63;;;;;;;26.72;46.02;94936.03;4972913;28;20031;-87
2023/09/11 10:15:26;;;;;;;6.57;2.60;;;;;;;27.64;45.34;94932.69;4991432;28;20101;-92
2023/09/11 10:17:54;;;;;;;6.00;3.08;;;;;;;28.59;45.09;94927.56;4972794;28;20467;-91
2023/09/11 10:20:21;;;;;;;5.32;2.78;;;;;;;28.48;46.10;94931.41;4973496;28;20026;-90
2023/09/11 10:22:46;;;;;;;5.18;3.03;;;;;;;28.31;45.97;94927.59;4991236;28;20077;-89
2023/09/11 10:25:12;;;;;;;4.95;2.80;;;;;;;27.95;45.39;94927.09;4972656;28;20034;-88
2023/09/11 10:27:37;;;;;;;6.57;2.65;;;;;;;27.91;46.54;94915.41;4974802;28;20054;-85
2023/09/11 10:30:04;;;;;;;6.43;2.95;;;;;;;28.05;46.58;94919.84;4973172;28;20103;-88
2023/09/11 10:32:37;;;;;;;5.72;2.47;;;;;;;27.53;46.54;94917.84;4993399;28;20077;-92
2023/09/11 10:35:05;;;;;;;6.32;2.53;;;;;;;27.72;45.76;94913.44;4974560;28;20038;-92
2023/09/11 10:37:31;;;;;;;4.80;2.65;;;;;;;27.78;45.84;94903.53;4994970;28;20053;-92
2023/09/11 10:39:59;;;;;;;3.85;2.58;;;;;;;27.80;46.73;94905.94;4992268;28;20057;-92
2023/09/11 10:42:24;;;;;;;5.03;2.70;;;;;;;27.71;46.30;94903.06;4975248;28;20599;-88
2023/09/11 10:44:53;;;;;;;3.08;2.63;;;;;;;27.71;46.61;94898.53;4974562;28;20046;-92
2023/09/11 10:47:19;;;;;;;4.15;2.60;;;;;;;26.65;46.60;94901.78;4972646;28;20105;-91
2023/09/11 10:49:48;;;;;;;9.07;2.88;;;;;;;27.69;47.67;94902.56;4974551;28;20034;-89
2023/09/11 10:52:14;;;;;;;4.07;2.55;;;;;;;27.97;44.52;94895.66;4974448;28;20070;-95
2023/09/11 10:54:40;;;;;;;5.30;2.70;;;;;;;27.42;45.09;94892.34;4992192;28;20122;-89
2023/09/11 10:57:05;;;;;;;2.53;2.22;;;;;;;27.26;45.28;94895.41;4991223;28;20033;-94
2023/09/11 10:59:31;;;;;;;7.47;2.75;;;;;;;27.24;45.89;94891.13;4994667;28;20512;-90
2023/09/11 11:01:58;;;;;;;4.70;2.85;;;;;;;27.15;46.39;94886.66;4974017;28;20022;-93
2023/09/11 11:04:24;;;;;;;7.35;2.75;;;;;;;26.49;46.88;94886.94;4973058;28;20026;-93
2023/09/11 11:06:53;;;;;;;4.43;2.80;;;;;;;26.70;46.74;94890.34;4990795;28;20030;-94
2023/09/11 11:09:22;;;;;;;7.05;2.67;;;;;;;27.12;46.49;94873.94;4975696;28;20022;-94
2023/09/11 11:11:48;;;;;;;5.00;2.55;;;;;;;27.39;46.98;94879.59;4993209;28;20447;-92
2023/09/11 11:14:17;;;;;;;5.57;2.58;;;;;;;27.29;44.90;94876.22;4989060;28;20023;-90
2023/09/11 11:17:04;;;;;;;4.88;2.78;;;;;;;27.90;46.41;94873.91;4991657;28;20030;-91
2023/09/11 11:19:31;;;;;;;5.90;3.17;;;;;;;27.73;43.48;94869.78;4989145;28;20072;-84
2023/09/11 11:21:58;;;;;;;3.80;2.55;;;;;;;27.83;45.09;94870.75;4989464;28;20100;-91
2023/09/11 11:24:24;;;;;;;5.95;2.40;;;;;;;28.13;43.46;94873.94;4957235;28;20077;-85
2023/09/11 11:26:56;;;;;;;4.75;2.42;;;;;;;28.10;43.26;94860.38;4974011;28;20022;-92
2023/09/11 11:29:23;;;;;;;3.45;2.63;;;;;;;27.90;43.21;94863.25;4973821;28;20057;-91
2023/09/11 11:31:55;;;;;;;6.13;2.53;;;;;;;28.18;44.86;94862.44;4989477;28;20419;-88
2023/09/11 11:34:29;;;;;;;5.07;2.70;;;;;;;28.13;43.10;94865.16;4973598;28;20109;-90
2023/09/11 11:36:57;;;;;;;5.28;2.78;;;;;;;28.05;43.98;94860.41;4972714;28;20027;-90
2023/09/11 11:39:26;;;;;;;2.50;1.98;;;;;;;27.84;44.70;94857.16;4972290;28;20554;-93
2023/09/11 11:41:53;;;;;;;3.28;2.60;;;;;;;27.03;44.23;94852.44;4973305;28;20072;-91
2023/09/11 11:44:20;;;;;;;5.20;2.72;;;;;;;27.15;44.13;94858.22;4955854;28;20026;-89
2023/09/11 11:46:45;;;;;;;3.75;2.70;;;;;;;26.64;43.92;94852.34;4973276;28;20062;-92
2023/09/11 11:49:11;;;;;;;4.45;2.90;;;;;;;26.28;44.50;94850.91;4971301;28;20053;-89
2023/09/11 11:51:36;;;;;;;5.00;2.58;;;;;;;26.12;44.81;94855.44;4990361;28;20033;-95
2023/09/11 11:54:04;;;;;;;5.22;2.78;;;;;;;26.63;44.59;94850.75;4971397;28;20034;-94
2023/09/11 11:56:29;;;;;;;2.90;2.40;;;;;;;26.43;46.40;94844.72;4973057;28;20082;-93
2023/09/11 11:58:55;;;;;;;8.23;2.70;;;;;;;26.21;45.23;94842.41;4971924;28;20100;-93
2023/09/11 12:01:21;;;;;;;2.78;2.40;;;;;;;26.52;45.25;94838.56;4989245;28;20026;-92
2023/09/11 12:03:51;;;;;;;6.75;2.80;;;;;;;27.10;43.80;94836.19;4973186;28;20109;-94
2023/09/11 12:06:18;;;;;;;5.88;2.63;;;;;;;27.22;42.87;94832.09;4971413;28;20057;-84
2023/09/11 12:08:44;;;;;;;5.22;2.40;;;;;;;27.24;43.12;94831.81;4972033;28;20057;-93
2023/09/11 12:11:10;;;;;;;6.40;3.05;;;;;;;27.44;42.50;94829.03;4971202;28;20061;-93
2023/09/11 12:13:36;;;;;;;6.38;2.60;;;;;;;27.81;43.14;94822.28;4972077;28;20037;-93
2023/09/11 12:16:02;;;;;;;3.75;2.35;;;;;;;27.36;43.14;94816.28;4972083;28;20022;-91
2023/09/11 12:18:29;;;;;;;5.22;2.72;;;;;;;27.38;41.98;94814.16;4989340;28;20041;-93
2023/09/11 12:20:57;;;;;;;6.65;2.70;;;;;;;27.46;41.74;94820.75;4973166;28;20038;-90
2023/09/11 12:23:22;;;;;;;6.88;2.75;;;;;;;27.29;41.73;94812.34;4970357;28;20306;-84
2023/09/11 12:25:48;;;;;;;5.55;2.85;;;;;;;27.40;41.88;94811.19;4971993;28;20027;-93
2023/09/11 12:28:14;;;;;;;4.03;2.67;;;;;;;27.62;41.80;94819.53;4988856;28;20444;-92
2023/09/11 12:30:44;;;;;;;7.15;2.92;;;;;;;27.09;41.94;94810.63;4989339;28;20034;-92
2023/09/11 12:33:13;;;;;;;9.10;2.53;;;;;;;26.63;42.20;94805.56;4987619;28;20033;-92
2023/09/11 12:35:39;;;;;;;;;;;;;;;27.31;42.96;94805.69;4989334;28;20081;-86
2023/09/11 12:38:09;;;;;;;4.60;2.40;;;;;;;27.66;42.79;94805.41;4971259;28;19922;-93
2023/09/11 12:40:35;;;;;;;4.45;2.50;;;;;;;27.66;41.94;94794.75;4971914;28;20037;-88
2023/09/11 12:43:00;;;;;;;5.38;2.42;;;;;;;27.53;41.99;94806.06;4974518;28;20034;-92
2023/09/11 12:45:25;;;;;;;5.00;2.33;;;;;;;27.51;41.97;94791.44;4971540;28;20055;-87
2023/09/11 12:47:51;;;;;;;5.53;2.50;;;;;;;27.48;42.14;94794.66;4992303;28;20077;-91
2023/09/11 12:50:16;;;;;;;8.38;2.72;;;;;;;27.72;42.18;94774.19;4974468;28;20061;-82
2023/09/11 12:52:44;;;;;;;5.13;2.22;;;;;;;27.89;43.06;94787.06;4990334;28;20072;-92
2023/09/11 12:55:10;;;;;;;5.23;2.50;;;;;;;27.48;42.37;94792.00;4989757;28;20029;-89
2023/09/11 12:57:35;;;;;;;4.00;2.28;;;;;;;27.11;43.19;94787.22;4987925;28;20030;-92
2023/09/11 13:00:03;;;;;;;5.95;2.45;;;;;;;27.30;43.42;94780.13;4975951;28;20031;-95
2023/09/11 13:02:32;;;;;;;7.93;2.65;;;;;;;27.85;43.00;94788.69;4973964;28;20022;-89
2023/09/11 13:04:58;;;;;;;5.88;2.55;;;;;;;27.61;41.86;94792.13;4974263;28;20110;-93
2023/09/11 13:07:24;;;;;;;3.30;1.80;;;;;;;27.51;42.27;94778.94;4991294;28;20554;-95
2023/09/11 13:09:49;;;;;;;4.95;2.40;;;;;;;27.17;42.20;94786.88;4990406;28;20030;-89
2023/09/11 13:12:15;;;;;;;6.20;2.58;;;;;;;27.22;42.90;94786.06;4991252;28;20022;-94
2023/09/11 13:14:41;;;;;;;9.32;3.17;;;;;;;27.32;42.70;94778.00;5057511;23;20756;-86
2023/09/11 13:17:06;;;;;;;4.75;2.40;;;;;;;27.16;42.50;94779.19;4948399;29;20047;-92
2023/09/11 13:19:31;;;;;;;5.60;2.58;;;;;;;27.26;43.02;94781.00;4952715;29;20038;-85
2023/09/11 13:21:57;;;;;;;7.10;2.75;;;;;;;27.07;42.74;94786.16;4950769;29;20035;-92
2023/09/11 13:24:23;;;;;;;6.65;2.50;;;;;;;27.16;42.78;94782.63;4953703;29;20067;-96
2023/09/11 13:26:49;;;;;;;4.47;2.25;;;;;;;27.02;42.52;94783.56;4953380;28;20072;-96
2023/09/11 13:29:14;;;;;;;4.80;2.78;;;;;;;27.09;42.94;94784.03;4938723;29;20019;-88
2023/09/11 13:31:40;;;;;;;6.03;2.75;;;;;;;27.18;43.92;94771.72;4953283;29;20106;-89
2023/09/11 13:34:07;;;;;;;6.82;3.00;;;;;;;27.01;43.15;94781.97;4954252;29;20036;-92
2023/09/11 13:36:32;;;;;;;5.32;2.50;;;;;;;27.15;43.79;94775.75;4952779;29;20042;-94
2023/09/11 13:38:57;;;;;;;5.93;2.70;;;;;;;27.06;42.87;94773.97;4953666;29;20031;-90
2023/09/11 13:41:23;;;;;;;4.28;2.50;;;;;;;26.93;43.52;94771.94;4954655;29;20019;-94
2023/09/11 13:43:50;;;;;;;10.95;2.53;;;;;;;26.81;44.01;94774.13;4953143;29;20362;-96
2023/09/11 13:46:16;;;;;;;5.45;2.45;;;;;;;26.89;43.70;94771.69;4954526;29;20556;-85
2023/09/11 13:48:41;;;;;;;5.30;3.00;;;;;;;26.68;43.77;94775.53;4952253;29;20031;-83
2023/09/11 13:51:07;;;;;;;5.28;2.95;;;;;;;26.71;43.69;94765.09;4954610;29;20147;-90
2023/09/11 13:53:32;;;;;;;7.80;3.20;;;;;;;26.77;43.81;94765.88;4935431;29;20035;-92
2023/09/11 13:55:57;;;;;;;4.18;2.70;;;;;;;26.80;44.12;94769.84;4954397;29;20043;-92
2023/09/11 13:58:23;;;;;;;4.40;2.95;;;;;;;26.85;44.20;94760.00;4953513;29;20365;-84
2023/09/11 14:00:48;;;;;;;6.53;2.70;;;;;;;27.07;44.23;94764.88;4953363;29;20035;-93
2023/09/11 14:03:14;;;;;;;4.10;2.85;;;;;;;26.65;43.17;94763.56;4953512;29;20031;-92
2023/09/11 14:05:40;;;;;;;3.90;3.08;;;;;;;26.65;43.83;94763.56;4952236;29;20034;-85
2023/09/11 14:08:05;;;;;;;4.93;2.42;;;;;;;26.63;43.62;94763.03;4953969;29;20106;-91
2023/09/11 14:10:31;;;;;;;7.72;2.58;;;;;;;26.57;44.06;94766.81;4952685;29;20120;-90
2023/09/11 14:12:56;;;;;;;6.88;2.80;;;;;;;26.77;43.71;94759.78;4953819;29;20516;-91
2023/09/11 14:15:22;;;;;;;7.05;2.35;;;;;;;26.48;43.22;94765.78;4957955;28;20061;-89
2023/09/11 14:17:47;;;;;;;4.85;2.65;;;;;;;26.32;42.67;94761.63;4973134;28;20030;-90
2023/09/11 14:20:13;;;;;;;8.60;2.55;;;;;;;26.30;43.31;94765.63;4972401;28;20062;-90
2023/09/11 14:22:41;;;;;;;4.60;2.55;;;;;;;26.27;43.80;94764.28;4972158;28;20018;-87
2023/09/11 14:25:07;;;;;;;4.93;2.58;;;;;;;26.16;44.26;94760.09;4972798;28;20027;-87
2023/09/11 14:27:32;;;;;;;4.45;2.45;;;;;;;26.20;44.25;94755.81;4971713;28;20026;-87
2023/09/11 14:29:58;;;;;;;4.43;2.60;;;;;;;26.08;43.89;94761.44;4973300;28;20027;-94
2023/09/11 14:32:23;;;;;;;4.78;2.63;;;;;;;26.18;43.75;94761.41;4971344;28;20105;-89
2023/09/11 14:34:48;;;;;;;5.35;2.75;;;;;;;26.09;43.53;94764.88;4972302;28;20033;-91